createdAt,value
2019-01-15T00:01:04.961Z,4.30
2019-01-15T00:03:34.164Z,4.30
2019-01-15T00:06:03.397Z,4.30
2019-01-15T00:08:32.616Z,4.30
2019-01-15T00:11:01.843Z,4.30
2019-01-15T00:13:31.056Z,4.30
2019-01-15T00:16:00.307Z,4.30
2019-01-15T00:18:29.515Z,4.30
2019-01-15T00:20:58.805Z,4.30
2019-01-15T00:23:28.020Z,4.30
2019-01-15T00:25:57.241Z,4.30
2019-01-15T00:28:26.466Z,4.30
2019-01-15T00:30:55.720Z,4.40
2019-01-15T00:33:24.927Z,4.40
2019-01-15T00:35:54.198Z,4.40
2019-01-15T00:38:23.397Z,4.40
2019-01-15T00:40:52.621Z,4.30
2019-01-15T00:43:21.861Z,4.30
2019-01-15T00:45:51.213Z,4.30
2019-01-15T00:48:20.412Z,4.30
2019-01-15T00:50:49.635Z,4.30
2019-01-15T00:53:18.852Z,4.30
2019-01-15T00:55:48.053Z,4.20
2019-01-15T00:58:17.246Z,4.20
2019-01-15T01:00:46.480Z,4.20
2019-01-15T01:03:15.675Z,4.20
2019-01-15T01:05:44.912Z,4.10
2019-01-15T01:08:14.196Z,4.10
2019-01-15T01:10:43.429Z,4.10
2019-01-15T01:13:12.697Z,4.00
2019-01-15T01:15:42.020Z,4.10
2019-01-15T01:18:11.212Z,4.00
2019-01-15T01:20:40.615Z,4.00
2019-01-15T01:23:09.813Z,4.00
2019-01-15T01:25:39.029Z,3.90
2019-01-15T01:28:08.223Z,3.90
2019-01-15T01:30:37.455Z,3.90
2019-01-15T01:33:06.668Z,3.90
2019-01-15T01:35:35.888Z,3.90
2019-01-15T01:38:05.291Z,3.90
2019-01-15T01:40:34.512Z,3.90
2019-01-15T01:43:03.842Z,3.90
2019-01-15T01:45:33.042Z,3.90
2019-01-15T01:48:02.265Z,3.90
2019-01-15T01:50:31.489Z,3.90
2019-01-15T01:53:00.723Z,3.90
2019-01-15T01:55:29.932Z,3.90
2019-01-15T01:57:59.164Z,3.90
2019-01-15T02:00:28.380Z,3.90
2019-01-15T02:02:57.613Z,3.90
2019-01-15T02:05:26.872Z,3.80
2019-01-15T02:07:56.082Z,3.80
2019-01-15T02:10:25.356Z,3.80
2019-01-15T02:12:54.585Z,3.80
2019-01-15T02:15:25.039Z,3.80
2019-01-15T02:17:54.247Z,3.80
2019-01-15T02:20:23.506Z,3.80
2019-01-15T02:22:52.729Z,3.80
2019-01-15T02:25:21.927Z,3.70
2019-01-15T02:27:53.042Z,3.70
2019-01-15T02:30:24.430Z,3.70
2019-01-15T02:32:53.722Z,3.70
2019-01-15T02:35:22.903Z,3.70
2019-01-15T02:37:52.126Z,3.70
2019-01-15T02:40:21.327Z,3.70
2019-01-15T02:42:50.527Z,3.70
2019-01-15T02:45:21.109Z,3.70
2019-01-15T02:47:50.340Z,3.70
2019-01-15T02:50:20.700Z,3.70
2019-01-15T02:52:49.948Z,3.70
2019-01-15T02:55:19.152Z,3.70
2019-01-15T02:57:48.367Z,3.70
2019-01-15T03:00:22.428Z,3.70
2019-01-15T03:02:51.758Z,3.70
2019-01-15T03:05:21.060Z,3.70
2019-01-15T03:07:50.272Z,3.70
2019-01-15T03:10:20.532Z,3.70
2019-01-15T03:12:55.498Z,3.70
2019-01-15T03:15:23.357Z,3.80
2019-01-15T03:17:53.191Z,3.80
2019-01-15T03:20:22.505Z,3.80
2019-01-15T03:22:51.730Z,3.80
2019-01-15T03:25:21.052Z,3.80
2019-01-15T03:27:50.315Z,3.80
2019-01-15T03:30:21.502Z,3.80
2019-01-15T03:32:50.732Z,3.80
2019-01-15T03:35:19.924Z,3.70
2019-01-15T03:37:49.139Z,3.80
2019-01-15T03:40:23.536Z,3.70
2019-01-15T03:42:52.932Z,3.70
2019-01-15T03:45:22.160Z,3.70
2019-01-15T03:47:51.347Z,3.70
2019-01-15T03:50:20.632Z,3.70
2019-01-15T03:52:50.033Z,3.70
2019-01-15T03:55:19.547Z,3.60
2019-01-15T03:57:48.830Z,3.60
2019-01-15T04:00:25.860Z,3.60
2019-01-15T04:02:56.151Z,3.60
2019-01-15T04:05:25.442Z,3.60
2019-01-15T04:07:58.788Z,3.60
2019-01-15T04:10:28.242Z,3.70
2019-01-15T04:12:57.488Z,3.70
2019-01-15T04:15:26.688Z,3.70
2019-01-15T04:17:55.905Z,3.70
2019-01-15T04:20:25.124Z,3.70
2019-01-15T04:22:54.309Z,3.70
2019-01-15T04:25:23.536Z,3.70
2019-01-15T04:27:52.716Z,3.80
2019-01-15T04:30:23.474Z,3.70
2019-01-15T04:32:52.656Z,3.70
2019-01-15T04:35:21.869Z,3.80
2019-01-15T04:37:51.068Z,3.80
2019-01-15T04:40:21.772Z,3.80
2019-01-15T04:42:51.091Z,3.80
2019-01-15T04:45:24.420Z,3.80
2019-01-15T04:47:53.611Z,3.80
2019-01-15T04:50:22.825Z,3.80
2019-01-15T04:52:59.290Z,3.80
2019-01-15T04:55:28.487Z,3.80
2019-01-15T04:57:57.676Z,3.80
2019-01-15T05:00:26.964Z,3.80
2019-01-15T05:02:59.172Z,3.80
2019-01-15T05:05:28.375Z,3.80
2019-01-15T05:07:57.571Z,3.90
2019-01-15T05:10:26.779Z,3.90
2019-01-15T05:12:56.017Z,3.90
2019-01-15T05:15:25.410Z,3.90
2019-01-15T05:17:54.616Z,4.00
2019-01-15T05:20:23.823Z,4.00
2019-01-15T05:22:53.065Z,4.00
2019-01-15T05:25:22.259Z,4.00
2019-01-15T05:27:51.459Z,4.00
2019-01-15T05:30:22.757Z,4.00
2019-01-15T05:32:52.082Z,3.80
2019-01-15T05:35:21.258Z,3.80
2019-01-15T05:37:50.480Z,3.60
2019-01-15T05:40:19.692Z,3.60
2019-01-15T05:42:48.900Z,3.50
2019-01-15T05:45:38.934Z,3.50
2019-01-15T05:48:19.498Z,3.50
2019-01-15T05:51:06.479Z,3.40
2019-01-15T05:53:35.705Z,3.40
2019-01-15T05:56:05.024Z,3.40
2019-01-15T05:58:34.231Z,3.40
2019-01-15T06:01:03.544Z,3.40
2019-01-15T06:03:33.739Z,3.50
2019-01-15T06:06:03.036Z,3.50
2019-01-15T06:08:33.385Z,3.50
2019-01-15T06:11:02.683Z,3.50
2019-01-15T06:13:31.955Z,3.50
2019-01-15T06:16:01.135Z,3.60
2019-01-15T06:18:30.419Z,3.60
2019-01-15T06:20:59.625Z,3.60
2019-01-15T06:23:28.824Z,3.60
2019-01-15T06:25:58.063Z,3.60
2019-01-15T06:28:27.807Z,3.60
2019-01-15T06:30:57.718Z,3.60
2019-01-15T06:33:27.015Z,3.60
2019-01-15T06:35:56.338Z,3.70
2019-01-15T06:38:25.612Z,3.70
2019-01-15T06:40:54.839Z,3.70
2019-01-15T06:43:24.051Z,3.80
2019-01-15T06:45:53.276Z,3.80
2019-01-15T06:48:22.547Z,3.90
2019-01-15T06:50:52.148Z,3.90
2019-01-15T06:53:21.344Z,3.90
2019-01-15T06:55:50.572Z,3.90
2019-01-15T06:58:19.772Z,4.00
2019-01-15T07:00:49.424Z,4.00
2019-01-15T07:03:18.648Z,4.10
2019-01-15T07:05:47.887Z,4.10
2019-01-15T07:08:17.095Z,4.20
2019-01-15T07:10:46.604Z,4.20
2019-01-15T07:13:15.831Z,4.20
2019-01-15T07:15:45.164Z,4.20
2019-01-15T07:18:14.424Z,4.20
2019-01-15T07:20:43.682Z,4.20
2019-01-15T07:23:12.865Z,4.20
2019-01-15T07:25:42.096Z,4.20
2019-01-15T07:28:11.464Z,4.20
2019-01-15T07:30:44.552Z,4.20
2019-01-15T07:33:13.772Z,4.20
2019-01-15T07:35:43.057Z,4.20
2019-01-15T07:38:12.432Z,4.20
2019-01-15T07:40:41.651Z,4.30
2019-01-15T07:43:10.856Z,4.30
2019-01-15T07:45:40.088Z,4.30
2019-01-15T07:48:09.296Z,4.40
2019-01-15T07:50:38.519Z,4.40
2019-01-15T07:53:07.737Z,4.50
2019-01-15T07:55:36.934Z,4.50
2019-01-15T07:58:06.355Z,4.50
2019-01-15T08:00:35.564Z,4.60
2019-01-15T08:03:05.240Z,4.60
2019-01-15T08:05:34.434Z,4.70
2019-01-15T08:08:03.804Z,4.70
2019-01-15T08:10:33.071Z,4.70
2019-01-15T08:13:04.205Z,4.80
2019-01-15T08:15:33.395Z,4.80
2019-01-15T08:18:02.707Z,4.80
2019-01-15T08:20:31.897Z,4.90
2019-01-15T08:23:01.122Z,4.90
2019-01-15T08:25:30.345Z,4.90
2019-01-15T08:27:59.566Z,5.00
2019-01-15T08:30:35.366Z,5.00
2019-01-15T08:33:04.862Z,5.10
2019-01-15T08:35:34.052Z,5.10
2019-01-15T08:38:03.811Z,5.20
2019-01-15T08:40:33.029Z,5.20
2019-01-15T08:43:02.329Z,5.20
2019-01-15T08:45:32.362Z,5.20
2019-01-15T08:48:10.987Z,5.20
2019-01-15T08:50:40.347Z,5.20
2019-01-15T08:53:09.833Z,5.20
2019-01-15T08:55:39.050Z,5.10
2019-01-15T08:58:08.251Z,5.10
2019-01-15T09:00:37.679Z,5.00
2019-01-15T09:03:06.877Z,5.00
2019-01-15T09:05:36.151Z,4.90
2019-01-15T09:08:05.565Z,4.90
2019-01-15T09:10:34.863Z,4.90
2019-01-15T09:13:04.378Z,4.80
2019-01-15T09:15:33.597Z,4.90
2019-01-15T09:18:02.914Z,4.90
2019-01-15T09:20:32.172Z,4.90
2019-01-15T09:23:01.400Z,5.00
2019-01-15T09:25:30.620Z,5.00
2019-01-15T09:27:59.799Z,5.10
2019-01-15T09:30:29.033Z,5.10
2019-01-15T09:32:58.264Z,5.20
2019-01-15T09:35:27.448Z,5.20
2019-01-15T09:37:56.960Z,5.20
2019-01-15T09:40:26.139Z,5.30
2019-01-15T09:42:55.339Z,5.30
2019-01-15T09:45:25.346Z,5.40
2019-01-15T09:48:02.939Z,5.40
2019-01-15T09:50:32.272Z,5.40
2019-01-15T09:53:02.069Z,5.40
2019-01-15T09:55:31.175Z,5.50
2019-01-15T09:58:00.387Z,5.50
2019-01-15T10:00:29.589Z,5.50
2019-01-15T10:02:58.823Z,5.50
2019-01-15T10:05:28.056Z,5.60
2019-01-15T10:07:57.295Z,5.60
2019-01-15T10:10:26.591Z,5.60
2019-01-15T10:12:55.816Z,5.70
2019-01-15T10:15:25.023Z,5.70
2019-01-15T10:17:54.207Z,5.70
2019-01-15T10:20:23.407Z,5.70
2019-01-15T10:22:52.719Z,5.70
2019-01-15T10:25:24.900Z,5.80
2019-01-15T10:27:55.232Z,5.80
2019-01-15T10:30:35.662Z,5.80
2019-01-15T10:33:18.989Z,5.90
2019-01-15T10:35:56.368Z,5.90
2019-01-15T10:38:26.605Z,5.90
2019-01-15T10:40:57.647Z,5.90
2019-01-15T10:43:28.395Z,5.90
2019-01-15T10:45:57.584Z,6.00
2019-01-15T10:48:26.930Z,6.00
2019-01-15T10:50:56.134Z,6.00
2019-01-15T10:53:26.376Z,6.00
2019-01-15T10:55:55.661Z,6.00
2019-01-15T10:58:25.038Z,6.10
2019-01-15T11:00:54.379Z,6.10
2019-01-15T11:03:23.746Z,6.10
2019-01-15T11:05:52.975Z,6.10
2019-01-15T11:08:22.268Z,6.20
2019-01-15T11:10:51.452Z,6.20
2019-01-15T11:13:20.686Z,6.20
2019-01-15T11:15:50.130Z,6.20
2019-01-15T11:18:19.427Z,6.30
2019-01-15T11:20:48.743Z,6.20
2019-01-15T11:23:18.024Z,6.30
2019-01-15T11:25:47.209Z,6.30
2019-01-15T11:28:16.428Z,6.30
2019-01-15T11:30:45.682Z,6.30
2019-01-15T11:33:14.869Z,6.30
2019-01-15T11:35:44.202Z,6.30
2019-01-15T11:38:13.517Z,6.30
2019-01-15T11:40:42.746Z,6.30
2019-01-15T11:43:11.984Z,6.30
2019-01-15T11:45:41.163Z,6.30
2019-01-15T11:48:10.399Z,6.30
2019-01-15T11:50:39.776Z,6.30
2019-01-15T11:53:09.000Z,6.40
2019-01-15T11:55:38.767Z,6.40
2019-01-15T11:58:08.008Z,6.40
2019-01-15T12:00:40.627Z,6.40
2019-01-15T12:03:23.247Z,6.40
2019-01-15T12:06:11.609Z,6.40
2019-01-15T12:08:58.821Z,6.40
2019-01-15T12:11:42.559Z,6.40
2019-01-15T12:14:36.852Z,6.40
2019-01-15T12:17:23.800Z,6.40
2019-01-15T12:20:27.428Z,6.50
2019-01-15T12:23:14.465Z,6.40
2019-01-15T12:26:05.648Z,6.50
2019-01-15T12:28:44.679Z,6.50
2019-01-15T12:31:32.975Z,6.50
2019-01-15T12:34:27.165Z,6.50
2019-01-15T12:37:17.112Z,6.60
2019-01-15T12:40:05.377Z,6.60
2019-01-15T12:43:02.547Z,6.60
2019-01-15T12:45:59.972Z,6.60
2019-01-15T12:49:00.515Z,6.60
2019-01-15T12:51:49.743Z,6.60
2019-01-15T12:54:44.179Z,6.60
2019-01-15T12:57:38.557Z,6.60
2019-01-15T13:00:27.697Z,6.60
2019-01-15T13:03:14.609Z,6.60
2019-01-15T13:05:57.752Z,6.60
2019-01-15T13:08:55.364Z,6.60
2019-01-15T13:11:42.308Z,6.60
2019-01-15T13:14:25.104Z,6.60
2019-01-15T13:17:12.378Z,6.70
2019-01-15T13:20:03.859Z,6.70
2019-01-15T13:22:51.242Z,6.70
2019-01-15T13:25:45.408Z,6.70
2019-01-15T13:28:42.999Z,6.70
2019-01-15T13:31:31.307Z,6.70
2019-01-15T13:34:25.948Z,6.70
2019-01-15T13:37:07.113Z,6.70
2019-01-15T13:39:54.328Z,6.70
2019-01-15T13:42:45.759Z,6.70
2019-01-15T13:45:28.859Z,6.70
2019-01-15T13:48:16.112Z,6.80
2019-01-15T13:51:02.368Z,6.80
2019-01-15T13:53:45.546Z,6.80
2019-01-15T13:56:38.908Z,6.80
2019-01-15T13:59:25.984Z,6.80
2019-01-15T14:02:17.468Z,6.80
2019-01-15T14:05:08.676Z,6.90
2019-01-15T14:07:55.931Z,6.90
2019-01-15T14:10:50.208Z,6.90
2019-01-15T14:13:44.450Z,6.90
2019-01-15T14:16:31.706Z,6.90
2019-01-15T14:19:24.853Z,6.90
2019-01-15T14:22:25.411Z,6.90
2019-01-15T14:25:12.474Z,6.90
2019-01-15T14:27:55.095Z,6.90
2019-01-15T14:30:41.975Z,6.90
2019-01-15T14:33:36.143Z,6.90
2019-01-15T14:36:24.624Z,6.90
2019-01-15T14:39:11.892Z,6.90
2019-01-15T14:42:06.176Z,6.90
2019-01-15T14:44:53.176Z,6.90
2019-01-15T14:47:40.379Z,7.00
2019-01-15T14:50:33.044Z,6.90
2019-01-15T14:53:23.943Z,6.90
2019-01-15T14:56:06.965Z,7.00
2019-01-15T14:59:07.266Z,7.00
2019-01-15T15:01:49.008Z,7.00
2019-01-15T15:04:40.884Z,7.00
2019-01-15T15:07:29.154Z,7.00
2019-01-15T15:10:23.248Z,7.00
2019-01-15T15:13:11.476Z,7.00
2019-01-15T15:16:03.615Z,7.00
2019-01-15T15:18:48.376Z,7.00
2019-01-15T15:21:39.272Z,7.00
2019-01-15T15:24:26.451Z,7.00
2019-01-15T15:27:13.007Z,7.00
2019-01-15T15:30:14.339Z,7.00
2019-01-15T15:33:07.012Z,7.00
2019-01-15T15:35:52.220Z,7.00
2019-01-15T15:38:39.345Z,7.00
2019-01-15T15:41:22.299Z,7.00
2019-01-15T15:44:01.003Z,7.00
2019-01-15T15:46:48.289Z,7.00
2019-01-15T15:49:30.297Z,7.00
2019-01-15T15:52:07.974Z,7.00
2019-01-15T15:54:59.111Z,7.00
2019-01-15T15:57:51.524Z,7.10
2019-01-15T16:00:43.455Z,7.00
2019-01-15T16:03:30.789Z,7.10
2019-01-15T16:06:25.167Z,7.10
2019-01-15T16:09:16.258Z,7.10
2019-01-15T16:12:02.014Z,7.10
2019-01-15T16:14:53.384Z,7.10
2019-01-15T16:17:45.249Z,7.10
2019-01-15T16:20:45.867Z,7.10
2019-01-15T16:23:27.006Z,7.10
2019-01-15T16:26:08.365Z,7.10
2019-01-15T16:28:55.748Z,7.10
2019-01-15T16:31:44.567Z,7.20
2019-01-15T16:34:32.388Z,7.20
2019-01-15T16:37:32.960Z,7.20
2019-01-15T16:40:24.005Z,7.20
2019-01-15T16:43:10.924Z,7.20
2019-01-15T16:45:58.175Z,7.20
2019-01-15T16:48:39.293Z,7.20
2019-01-15T16:51:39.496Z,7.20
2019-01-15T16:54:25.442Z,7.20
2019-01-15T16:57:12.504Z,7.20
2019-01-15T17:00:15.899Z,7.20
2019-01-15T17:03:06.750Z,7.30
2019-01-15T17:05:53.677Z,7.20
2019-01-15T17:08:51.087Z,7.30
2019-01-15T17:11:45.388Z,7.30
2019-01-15T17:14:36.420Z,7.30
2019-01-15T17:17:23.512Z,7.30
2019-01-15T17:20:15.631Z,7.30
2019-01-15T17:23:09.920Z,7.30
2019-01-15T17:25:56.929Z,7.30
2019-01-15T17:28:44.140Z,7.30
2019-01-15T17:31:39.270Z,7.30
2019-01-15T17:34:27.956Z,7.30
2019-01-15T17:37:15.108Z,7.30
2019-01-15T17:40:05.336Z,7.30
2019-01-15T17:42:59.231Z,7.30
2019-01-15T17:45:38.171Z,7.30
2019-01-15T17:48:15.243Z,7.30
2019-01-15T17:51:05.141Z,7.40
2019-01-15T17:53:51.982Z,7.40
2019-01-15T17:56:38.875Z,7.40
2019-01-15T17:59:36.495Z,7.40
2019-01-15T18:02:23.903Z,7.40
2019-01-15T18:05:21.529Z,7.40
2019-01-15T18:08:09.781Z,7.40
2019-01-15T18:10:53.444Z,7.40
2019-01-15T18:13:37.908Z,7.40
2019-01-15T18:16:27.497Z,7.40
2019-01-15T18:19:03.659Z,7.40
2019-01-15T18:21:49.609Z,7.40
2019-01-15T18:24:27.438Z,7.40
2019-01-15T18:27:15.714Z,7.40
2019-01-15T18:30:07.777Z,7.40
2019-01-15T18:32:49.491Z,7.40
2019-01-15T18:35:33.143Z,7.40
2019-01-15T18:38:10.572Z,7.40
2019-01-15T18:41:14.175Z,7.40
2019-01-15T18:43:53.728Z,7.40
2019-01-15T18:46:55.757Z,7.40
2019-01-15T18:49:47.022Z,7.40
2019-01-15T18:52:35.255Z,7.40
2019-01-15T18:55:28.068Z,7.40
2019-01-15T18:58:16.343Z,7.40
2019-01-15T19:01:13.784Z,7.50
2019-01-15T19:04:17.155Z,7.40
2019-01-15T19:07:11.598Z,7.40
2019-01-15T19:09:58.728Z,7.40
2019-01-15T19:12:45.009Z,7.40
2019-01-15T19:15:34.695Z,7.40
2019-01-15T19:18:26.036Z,7.50
2019-01-15T19:21:13.283Z,7.50
2019-01-15T19:24:05.800Z,7.50
2019-01-15T19:27:06.175Z,7.50
2019-01-15T19:30:03.663Z,7.50
2019-01-15T19:32:51.923Z,7.40
2019-01-15T19:35:40.256Z,7.50
2019-01-15T19:38:31.269Z,7.40
2019-01-15T19:41:19.577Z,7.40
2019-01-15T19:44:13.132Z,7.40
2019-01-15T19:47:00.700Z,7.50
2019-01-15T19:49:47.192Z,7.40
2019-01-15T19:52:35.840Z,7.40
2019-01-15T19:55:37.020Z,7.40
2019-01-15T19:58:17.615Z,7.40
2019-01-15T20:01:20.965Z,7.40
2019-01-15T20:03:59.890Z,7.50
2019-01-15T20:07:00.176Z,7.40
2019-01-15T20:09:47.125Z,7.50
2019-01-15T20:12:41.211Z,7.50
2019-01-15T20:15:26.684Z,7.40
2019-01-15T20:18:30.563Z,7.50
2019-01-15T20:21:18.832Z,7.40
2019-01-15T20:24:16.061Z,7.40
2019-01-15T20:27:10.479Z,7.50
2019-01-15T20:29:58.744Z,7.40
2019-01-15T20:32:47.196Z,7.40
2019-01-15T20:35:34.491Z,7.40
2019-01-15T20:38:16.767Z,7.50
2019-01-15T20:41:03.612Z,7.50
2019-01-15T20:43:51.931Z,7.50
2019-01-15T20:46:38.916Z,7.50
2019-01-15T20:49:25.866Z,7.40
2019-01-15T20:52:03.643Z,7.40
2019-01-15T20:54:43.441Z,7.50
2019-01-15T20:57:37.699Z,7.50
2019-01-15T21:00:17.438Z,7.50
2019-01-15T21:03:11.511Z,7.50
2019-01-15T21:06:02.791Z,7.50
2019-01-15T21:08:43.576Z,7.50
2019-01-15T21:11:31.814Z,7.50
2019-01-15T21:14:38.236Z,7.50
2019-01-15T21:17:32.686Z,7.50
2019-01-15T21:20:15.135Z,7.50
2019-01-15T21:23:16.723Z,7.50
2019-01-15T21:25:58.631Z,7.50
2019-01-15T21:28:36.347Z,7.50
2019-01-15T21:31:33.723Z,7.50
2019-01-15T21:34:23.846Z,7.50
2019-01-15T21:37:30.563Z,7.50
2019-01-15T21:40:07.620Z,7.60
2019-01-15T21:42:59.672Z,7.50
2019-01-15T21:45:53.786Z,7.60
2019-01-15T21:48:52.390Z,7.60
2019-01-15T21:51:31.195Z,7.60
2019-01-15T21:54:19.392Z,7.60
2019-01-15T21:57:14.799Z,7.60
2019-01-15T22:00:00.583Z,7.60
2019-01-15T22:02:54.908Z,7.60
2019-01-15T22:05:49.166Z,7.60
2019-01-15T22:08:39.107Z,7.60
2019-01-15T22:11:24.984Z,7.60
2019-01-15T22:14:19.341Z,7.60
2019-01-15T22:17:23.057Z,7.60
2019-01-15T22:20:13.926Z,7.60
2019-01-15T22:23:00.904Z,7.60
2019-01-15T22:25:58.505Z,7.60
2019-01-15T22:28:45.680Z,7.60
2019-01-15T22:31:33.110Z,7.60
2019-01-15T22:34:20.005Z,7.60
2019-01-15T22:37:06.928Z,7.60
2019-01-15T22:39:47.859Z,7.60
2019-01-15T22:42:25.088Z,7.60
2019-01-15T22:45:21.318Z,7.60
2019-01-15T22:48:13.520Z,7.60
2019-01-15T22:51:01.820Z,7.60
2019-01-15T22:54:02.236Z,7.60
2019-01-15T22:56:42.649Z,7.60
2019-01-15T22:59:29.605Z,7.60
2019-01-15T23:02:24.101Z,7.60
2019-01-15T23:05:25.400Z,7.60
2019-01-15T23:08:13.404Z,7.60
2019-01-15T23:11:11.015Z,7.60
2019-01-15T23:13:59.552Z,7.60
2019-01-15T23:16:49.384Z,7.50
2019-01-15T23:19:53.074Z,7.60
2019-01-15T23:22:44.176Z,7.50
2019-01-15T23:25:38.272Z,7.50
2019-01-15T23:28:32.644Z,7.50
2019-01-15T23:31:33.156Z,7.50
2019-01-15T23:34:26.062Z,7.50
2019-01-15T23:37:20.128Z,7.50
2019-01-15T23:40:23.774Z,7.50
2019-01-15T23:43:18.015Z,7.50
2019-01-15T23:46:04.939Z,7.50
2019-01-15T23:49:02.440Z,7.50
2019-01-15T23:51:49.384Z,7.50
2019-01-15T23:54:27.795Z,7.50
2019-01-15T23:57:14.992Z,7.50
